馬祖北竿航空站 - ATIS

METAR RCMT 221100Z 04013KT 9999 FEW014 BKN100 11/08 Q1021 NOSIG RMK A3017(R)=

站台狀態:Online
最後更新:2019-02-22 19:45:01